Blue Lake, California
Current Conditions -  °F | °C
As of 6:53 AM on Friday 19 Dec 2014 (Local Time) from KACV Reporting Station
Light Rain Light Rain  
Wind Chill: 51°   Ceiling: 6000
Heat Index: 51°   Visibility: 10mi
Dew Point: 49°   Wind: 6mph
Humidity: 92%   Direction: 120°ESE
Pressure: 30.06"   Gusts: NA
Location:  40.88°N, 123.98°W
Report Text: KACV 191453Z AUTO 12005KT 10SM -RA SCT045 BKN060 OVC095 11/09 A3006 RMK AO2 RAE1354B22 SLP183 P0001 60001 T01060094 53010
Loading
Personal Weather Stations






























Interactive Weather Map New forecast layout! Learn more

10-Day Weather Forecast

Advertisements
Track Severe Weather on mobile